createdAt,value
2022-09-25T00:02:10.106Z,78.2
2022-09-25T00:07:45.577Z,78.3
2022-09-25T00:13:20.613Z,78.3
2022-09-25T00:18:56.934Z,78.5
2022-09-25T00:24:31.768Z,78.5
2022-09-25T00:30:54.447Z,78.5
2022-09-25T00:36:30.867Z,78.7
2022-09-25T00:42:05.748Z,78.9
2022-09-25T00:47:41.005Z,78.9
2022-09-25T00:53:15.925Z,79
2022-09-25T00:58:52.026Z,79.1
2022-09-25T01:04:27.200Z,79.2
2022-09-25T01:10:03.406Z,79.3
2022-09-25T01:15:38.402Z,79.4
2022-09-25T01:21:15.613Z,79.6
2022-09-25T01:26:50.499Z,79.6
2022-09-25T01:32:25.665Z,79.6
2022-09-25T01:38:00.950Z,79.6
2022-09-25T01:43:37.977Z,79.7
2022-09-25T01:49:13.267Z,79.8
2022-09-25T01:54:48.084Z,79.7
2022-09-25T02:00:24.036Z,79.6
2022-09-25T02:05:58.891Z,79.6
2022-09-25T02:11:33.956Z,79.5
2022-09-25T02:17:09.231Z,79.5
2022-09-25T02:22:45.200Z,79.6
2022-09-25T02:28:21.004Z,79.5
2022-09-25T02:33:56.245Z,79.5
2022-09-25T02:39:31.284Z,79.4
2022-09-25T02:45:06.370Z,79.4
2022-09-25T02:50:41.115Z,79.4
2022-09-25T02:56:16.197Z,79.5
2022-09-25T03:01:51.145Z,79.7
2022-09-25T03:07:26.558Z,79.7
2022-09-25T03:13:01.562Z,79.8
2022-09-25T03:18:36.690Z,79.8
2022-09-25T03:24:11.788Z,79.7
2022-09-25T03:29:49.067Z,79.6
2022-09-25T03:35:23.906Z,79.5
2022-09-25T03:40:59.420Z,79.5
2022-09-25T03:46:37.125Z,79.4
2022-09-25T03:52:14.527Z,79.4
2022-09-25T03:57:49.829Z,79.4
2022-09-25T04:03:24.944Z,79.4
2022-09-25T04:09:00.918Z,79.4
2022-09-25T04:14:35.737Z,79.4
2022-09-25T04:20:10.455Z,79.2
2022-09-25T04:25:45.327Z,79.2
2022-09-25T04:31:21.795Z,79.2
2022-09-25T04:36:58.137Z,79.2
2022-09-25T04:42:33.409Z,79.2
2022-09-25T04:48:08.399Z,79.3
2022-09-25T04:53:44.108Z,79.2
2022-09-25T04:59:18.929Z,79.2
2022-09-25T05:04:55.021Z,79.3
2022-09-25T05:10:30.471Z,79.1
2022-09-25T05:16:05.464Z,78.9
2022-09-25T05:21:41.421Z,78.9
2022-09-25T05:27:16.549Z,78.7
2022-09-25T05:32:52.007Z,78.7
2022-09-25T05:38:27.301Z,78.9
2022-09-25T05:44:02.149Z,79
2022-09-25T05:49:37.273Z,79
2022-09-25T05:55:12.468Z,78.5
2022-09-25T06:00:47.094Z,78.3
2022-09-25T06:06:27.987Z,78.2
2022-09-25T06:12:04.035Z,78.4
2022-09-25T06:17:46.499Z,78.9
2022-09-25T06:23:21.723Z,78.8
2022-09-25T06:29:03.445Z,78.8
2022-09-25T06:34:38.776Z,78.9
2022-09-25T06:40:21.110Z,79
2022-09-25T06:46:04.646Z,79.2
2022-09-25T06:51:40.841Z,81.2
2022-09-25T06:57:17.927Z,82.4
2022-09-25T07:02:57.434Z,82.6
2022-09-25T07:08:35.384Z,82.9
2022-09-25T07:14:10.511Z,84.1
2022-09-25T07:19:48.364Z,85.5
2022-09-25T07:25:23.363Z,85
2022-09-25T07:30:59.690Z,85.5
2022-09-25T07:36:35.746Z,84
2022-09-25T07:42:10.726Z,85.7
2022-09-25T07:47:46.061Z,84.4
2022-09-25T07:53:22.061Z,84.3
2022-09-25T07:58:57.000Z,84.4
2022-09-25T08:04:32.030Z,83.5
2022-09-25T08:10:06.974Z,83.3
2022-09-25T08:15:52.717Z,82.1
2022-09-25T08:21:33.139Z,81
2022-09-25T08:27:08.176Z,81.2
2022-09-25T08:32:47.792Z,77.7
2022-09-25T08:38:23.422Z,80
2022-09-25T08:43:58.612Z,78.4
2022-09-25T08:49:36.400Z,75.8
2022-09-25T08:55:11.833Z,77.8
2022-09-25T09:00:47.509Z,77.8
2022-09-25T09:06:22.764Z,76.1
2022-09-25T09:11:57.600Z,77.1
2022-09-25T09:17:33.222Z,76.6
2022-09-25T09:23:15.522Z,75.7
2022-09-25T09:28:51.092Z,71.1
2022-09-25T09:35:04.518Z,70.8
2022-09-25T09:41:28.651Z,67.6
2022-09-25T09:47:04.761Z,66.6
2022-09-25T09:52:39.941Z,66
2022-09-25T09:58:14.794Z,70.4
2022-09-25T10:03:51.749Z,70.1
2022-09-25T10:09:26.684Z,70.8
2022-09-25T10:15:01.809Z,63
2022-09-25T10:20:37.231Z,65.8
2022-09-25T10:26:12.212Z,63.1
2022-09-25T10:31:47.473Z,62.9
2022-09-25T10:37:22.439Z,64.5
2022-09-25T10:42:57.613Z,63.9
2022-09-25T10:48:33.034Z,63.8
2022-09-25T10:54:07.883Z,64.3
2022-09-25T10:59:44.111Z,64.5
2022-09-25T11:05:19.233Z,65.1
2022-09-25T11:10:54.187Z,63.7
2022-09-25T11:16:29.292Z,63.7
2022-09-25T11:22:04.825Z,65.4
2022-09-25T11:27:39.872Z,62.5
2022-09-25T11:33:15.037Z,61.1
2022-09-25T11:38:50.310Z,61.1
2022-09-25T11:44:26.495Z,52.5
2022-09-25T11:50:01.733Z,51.8
2022-09-25T11:55:43.811Z,52
2022-09-25T12:01:19.494Z,51.4
2022-09-25T12:06:55.246Z,54
2022-09-25T12:12:30.067Z,57.3
2022-09-25T12:18:05.080Z,58
2022-09-25T12:23:40.114Z,57.9
2022-09-25T12:29:24.973Z,55.9
2022-09-25T12:34:59.814Z,49.9
2022-09-25T12:40:35.230Z,45.4
2022-09-25T12:46:12.197Z,45.9
2022-09-25T12:51:54.692Z,47.1
2022-09-25T12:57:30.811Z,46.6
2022-09-25T13:03:07.039Z,45.7
2022-09-25T13:08:42.933Z,44.4
2022-09-25T13:14:17.814Z,43.4
2022-09-25T13:19:54.156Z,36.2
2022-09-25T13:25:29.176Z,24.9
2022-09-25T13:31:09.821Z,23.8
2022-09-25T13:36:46.873Z,24.2
2022-09-25T13:42:22.909Z,30.8
2022-09-25T13:48:06.327Z,25.1
2022-09-25T13:53:44.128Z,29.9
2022-09-25T13:59:19.370Z,32.5
2022-09-25T14:04:54.788Z,35.4
2022-09-25T14:10:29.806Z,39.6
2022-09-25T14:16:05.180Z,42.2
2022-09-25T14:21:41.269Z,42.9
2022-09-25T14:27:16.435Z,45.8
2022-09-25T14:32:56.462Z,46.6
2022-09-25T14:38:32.280Z,45.8
2022-09-25T14:44:11.043Z,45
2022-09-25T14:49:46.947Z,48.3
2022-09-25T14:55:21.935Z,50.6
2022-09-25T15:00:56.880Z,47
2022-09-25T15:06:32.187Z,48.1
2022-09-25T15:12:08.331Z,49.4
2022-09-25T15:17:43.766Z,49.9
2022-09-25T15:23:19.088Z,50.7
2022-09-25T15:28:53.857Z,50.3
2022-09-25T15:34:28.847Z,49.1
2022-09-25T15:40:04.020Z,52.7
2022-09-25T15:45:39.981Z,52.5
2022-09-25T15:51:16.997Z,52.8
2022-09-25T15:56:52.205Z,52.8
2022-09-25T16:02:27.937Z,53.3
2022-09-25T16:08:03.349Z,54.2
2022-09-25T16:13:59.858Z,57
2022-09-25T16:19:32.503Z,54.2
2022-09-25T16:25:07.576Z,56.2
2022-09-25T16:30:43.442Z,57.5
2022-09-25T16:36:18.854Z,60.5
2022-09-25T16:41:53.906Z,60.8
2022-09-25T16:47:28.687Z,61.9
2022-09-25T16:53:03.387Z,63.7
2022-09-25T16:58:38.300Z,64.3
2022-09-25T17:04:13.580Z,63.7
2022-09-25T17:09:48.299Z,64.9
2022-09-25T17:15:23.482Z,64.6
2022-09-25T17:20:58.453Z,64.2
2022-09-25T17:26:33.164Z,65.5
2022-09-25T17:32:07.879Z,66.5
2022-09-25T17:37:42.682Z,69.6
2022-09-25T17:43:17.916Z,72
2022-09-25T17:48:55.277Z,70.6
2022-09-25T17:54:31.000Z,69.4
2022-09-25T18:00:07.776Z,70.6
2022-09-25T18:05:43.129Z,69.8
2022-09-25T18:11:18.014Z,69.2
2022-09-25T18:16:53.561Z,71.8
2022-09-25T18:22:28.453Z,69
2022-09-25T18:28:03.697Z,69.7
2022-09-25T18:33:39.412Z,70.4
2022-09-25T18:39:23.205Z,70
2022-09-25T18:45:05.123Z,68
2022-09-25T18:50:40.120Z,67.4
2022-09-25T18:56:14.640Z,67.3
2022-09-25T19:01:50.890Z,67.6
2022-09-25T19:07:29.241Z,67.8
2022-09-25T19:13:26.305Z,67.8
2022-09-25T19:18:59.933Z,67.9
2022-09-25T19:24:34.761Z,68
2022-09-25T19:30:09.637Z,68.3
2022-09-25T19:35:44.505Z,68.5
2022-09-25T19:41:20.254Z,68.7
2022-09-25T19:46:56.216Z,68.9
2022-09-25T19:52:30.822Z,69
2022-09-25T19:58:07.018Z,69.1
2022-09-25T20:03:41.806Z,69.4
2022-09-25T20:10:01.750Z,69.3
2022-09-25T20:15:38.126Z,69.4
2022-09-25T20:21:21.291Z,69.5
2022-09-25T20:26:56.879Z,69.6
2022-09-25T20:32:32.989Z,69.7
2022-09-25T20:38:07.369Z,69.8
2022-09-25T20:43:42.124Z,70.1
2022-09-25T20:49:17.096Z,70.2
2022-09-25T20:54:52.164Z,70.6
2022-09-25T21:00:27.918Z,70.7
2022-09-25T21:06:09.853Z,71
2022-09-25T21:11:44.640Z,71.2
2022-09-25T21:17:20.285Z,71.4
2022-09-25T21:22:55.585Z,71
2022-09-25T21:28:30.597Z,71.3
2022-09-25T21:34:05.847Z,71.3
2022-09-25T21:39:40.947Z,71.5
2022-09-25T21:45:16.127Z,71.5
2022-09-25T21:50:51.836Z,71.3
2022-09-25T21:56:26.793Z,71.5
2022-09-25T22:02:01.836Z,71.8
2022-09-25T22:07:36.624Z,72.1
2022-09-25T22:13:33.404Z,72.2
2022-09-25T22:19:06.484Z,72.1
2022-09-25T22:24:41.862Z,72.1
2022-09-25T22:30:18.049Z,72.1
2022-09-25T22:35:53.362Z,72.1
2022-09-25T22:41:29.440Z,72.3
2022-09-25T22:47:04.681Z,72.5
2022-09-25T22:52:39.352Z,72.7
2022-09-25T22:58:14.238Z,72.8
2022-09-25T23:03:50.741Z,73
2022-09-25T23:09:28.253Z,73.1
2022-09-25T23:15:03.336Z,73.4
2022-09-25T23:20:38.578Z,73.7
2022-09-25T23:26:14.263Z,73.9
2022-09-25T23:31:49.246Z,73.9
2022-09-25T23:37:24.506Z,73.9
2022-09-25T23:42:59.694Z,74
2022-09-25T23:48:35.097Z,74
2022-09-25T23:54:09.889Z,74.2
2022-09-25T23:59:45.226Z,74.3
